sensor_id;sensor_type;location;lat;lon;timestamp;P1;durP1;ratioP1;P2;durP2;ratioP2
39322;SDS011;25036;53.638;10.134;2024-03-17T00:00:20;7.43;;;1.98;;
39322;SDS011;25036;53.638;10.134;2024-03-17T00:01:20;7.75;;;1.90;;
39322;SDS011;25036;53.638;10.134;2024-03-17T00:02:21;8.03;;;1.77;;
39322;SDS011;25036;53.638;10.134;2024-03-17T00:03:21;7.63;;;1.98;;
39322;SDS011;25036;53.638;10.134;2024-03-17T00:04:22;8.57;;;2.17;;
39322;SDS011;25036;53.638;10.134;2024-03-17T00:05:22;8.43;;;2.27;;
39322;SDS011;25036;53.638;10.134;2024-03-17T00:06:22;8.07;;;1.97;;
39322;SDS011;25036;53.638;10.134;2024-03-17T00:07:22;7.07;;;1.83;;
39322;SDS011;25036;53.638;10.134;2024-03-17T00:08:22;12.77;;;1.80;;
39322;SDS011;25036;53.638;10.134;2024-03-17T00:09:23;7.38;;;1.60;;
39322;SDS011;25036;53.638;10.134;2024-03-17T00:10:24;9.20;;;1.75;;
39322;SDS011;25036;53.638;10.134;2024-03-17T00:11:24;6.30;;;1.60;;
39322;SDS011;25036;53.638;10.134;2024-03-17T00:12:24;9.02;;;1.67;;
39322;SDS011;25036;53.638;10.134;2024-03-17T00:13:24;7.93;;;2.00;;
39322;SDS011;25036;53.638;10.134;2024-03-17T00:14:25;7.43;;;1.83;;
39322;SDS011;25036;53.638;10.134;2024-03-17T00:15:25;8.38;;;1.98;;
39322;SDS011;25036;53.638;10.134;2024-03-17T00:16:25;9.32;;;1.80;;
39322;SDS011;25036;53.638;10.134;2024-03-17T00:17:25;9.20;;;1.83;;
39322;SDS011;25036;53.638;10.134;2024-03-17T00:18:25;9.38;;;2.58;;
39322;SDS011;25036;53.638;10.134;2024-03-17T00:19:28;8.05;;;1.95;;
39322;SDS011;25036;53.638;10.134;2024-03-17T00:20:28;8.03;;;2.00;;
39322;SDS011;25036;53.638;10.134;2024-03-17T00:21:30;7.10;;;1.70;;
39322;SDS011;25036;53.638;10.134;2024-03-17T00:22:30;6.50;;;1.60;;
39322;SDS011;25036;53.638;10.134;2024-03-17T00:23:35;9.80;;;1.88;;
39322;SDS011;25036;53.638;10.134;2024-03-17T00:24:35;6.38;;;1.67;;
39322;SDS011;25036;53.638;10.134;2024-03-17T00:25:35;7.93;;;1.97;;
39322;SDS011;25036;53.638;10.134;2024-03-17T00:26:36;7.60;;;1.90;;
39322;SDS011;25036;53.638;10.134;2024-03-17T00:27:36;7.20;;;1.73;;
39322;SDS011;25036;53.638;10.134;2024-03-17T00:28:39;6.13;;;1.50;;
39322;SDS011;25036;53.638;10.134;2024-03-17T00:29:39;6.60;;;1.50;;
39322;SDS011;25036;53.638;10.134;2024-03-17T00:30:39;6.40;;;1.43;;
39322;SDS011;25036;53.638;10.134;2024-03-17T00:31:41;7.10;;;1.88;;
39322;SDS011;25036;53.638;10.134;2024-03-17T00:32:41;6.55;;;1.52;;
39322;SDS011;25036;53.638;10.134;2024-03-17T00:33:42;7.85;;;1.90;;
39322;SDS011;25036;53.638;10.134;2024-03-17T00:34:42;6.90;;;1.60;;
39322;SDS011;25036;53.638;10.134;2024-03-17T00:35:42;5.57;;;1.48;;
39322;SDS011;25036;53.638;10.134;2024-03-17T00:36:42;6.40;;;1.80;;
39322;SDS011;25036;53.638;10.134;2024-03-17T00:37:42;5.53;;;1.60;;
39322;SDS011;25036;53.638;10.134;2024-03-17T00:38:42;7.93;;;1.80;;
39322;SDS011;25036;53.638;10.134;2024-03-17T00:39:42;4.80;;;1.17;;
39322;SDS011;25036;53.638;10.134;2024-03-17T00:40:43;4.40;;;1.47;;
39322;SDS011;25036;53.638;10.134;2024-03-17T00:41:45;8.55;;;2.03;;
39322;SDS011;25036;53.638;10.134;2024-03-17T00:42:45;7.87;;;1.47;;
39322;SDS011;25036;53.638;10.134;2024-03-17T00:43:45;5.30;;;1.83;;
39322;SDS011;25036;53.638;10.134;2024-03-17T00:44:45;5.27;;;2.07;;
39322;SDS011;25036;53.638;10.134;2024-03-17T00:45:54;8.73;;;2.50;;
39322;SDS011;25036;53.638;10.134;2024-03-17T00:46:54;8.27;;;2.30;;
39322;SDS011;25036;53.638;10.134;2024-03-17T00:47:54;6.33;;;2.20;;
39322;SDS011;25036;53.638;10.134;2024-03-17T00:48:54;7.50;;;2.47;;
39322;SDS011;25036;53.638;10.134;2024-03-17T00:49:54;8.27;;;2.63;;
39322;SDS011;25036;53.638;10.134;2024-03-17T00:50:55;8.70;;;2.70;;
39322;SDS011;25036;53.638;10.134;2024-03-17T00:51:55;10.10;;;2.70;;
39322;SDS011;25036;53.638;10.134;2024-03-17T00:52:55;6.87;;;2.37;;
39322;SDS011;25036;53.638;10.134;2024-03-17T00:53:55;7.40;;;2.30;;
39322;SDS011;25036;53.638;10.134;2024-03-17T00:54:56;9.43;;;2.70;;
39322;SDS011;25036;53.638;10.134;2024-03-17T00:55:56;6.73;;;2.23;;
39322;SDS011;25036;53.638;10.134;2024-03-17T00:57:00;9.45;;;2.95;;
39322;SDS011;25036;53.638;10.134;2024-03-17T00:58:01;7.70;;;2.70;;
39322;SDS011;25036;53.638;10.134;2024-03-17T00:59:01;10.98;;;2.85;;
39322;SDS011;25036;53.638;10.134;2024-03-17T01:00:01;8.67;;;2.33;;
39322;SDS011;25036;53.638;10.134;2024-03-17T01:01:02;7.38;;;1.83;;
39322;SDS011;25036;53.638;10.134;2024-03-17T01:02:02;5.90;;;1.70;;
39322;SDS011;25036;53.638;10.134;2024-03-17T01:03:03;8.40;;;2.27;;
39322;SDS011;25036;53.638;10.134;2024-03-17T01:04:03;6.05;;;1.80;;
39322;SDS011;25036;53.638;10.134;2024-03-17T01:05:03;6.03;;;2.00;;
39322;SDS011;25036;53.638;10.134;2024-03-17T01:06:05;9.45;;;2.50;;
39322;SDS011;25036;53.638;10.134;2024-03-17T01:07:05;7.35;;;1.80;;
39322;SDS011;25036;53.638;10.134;2024-03-17T01:08:05;7.72;;;1.90;;
39322;SDS011;25036;53.638;10.134;2024-03-17T01:09:06;6.15;;;1.65;;
39322;SDS011;25036;53.638;10.134;2024-03-17T01:10:06;6.72;;;1.77;;
39322;SDS011;25036;53.638;10.134;2024-03-17T01:11:08;7.22;;;1.88;;
39322;SDS011;25036;53.638;10.134;2024-03-17T01:12:08;10.27;;;1.80;;
39322;SDS011;25036;53.638;10.134;2024-03-17T01:13:09;8.43;;;2.17;;
39322;SDS011;25036;53.638;10.134;2024-03-17T01:14:09;5.85;;;1.73;;
39322;SDS011;25036;53.638;10.134;2024-03-17T01:15:10;9.65;;;2.47;;
39322;SDS011;25036;53.638;10.134;2024-03-17T01:16:11;8.93;;;1.88;;
39322;SDS011;25036;53.638;10.134;2024-03-17T01:17:11;7.65;;;1.83;;
39322;SDS011;25036;53.638;10.134;2024-03-17T01:18:11;6.43;;;1.60;;
39322;SDS011;25036;53.638;10.134;2024-03-17T01:19:11;7.68;;;1.63;;
39322;SDS011;25036;53.638;10.134;2024-03-17T01:20:11;8.37;;;1.73;;
39322;SDS011;25036;53.638;10.134;2024-03-17T01:21:11;8.40;;;1.97;;
39322;SDS011;25036;53.638;10.134;2024-03-17T01:22:12;8.03;;;2.13;;
39322;SDS011;25036;53.638;10.134;2024-03-17T01:23:12;8.07;;;1.80;;
39322;SDS011;25036;53.638;10.134;2024-03-17T01:24:13;7.70;;;1.92;;
39322;SDS011;25036;53.638;10.134;2024-03-17T01:25:13;5.87;;;2.07;;
39322;SDS011;25036;53.638;10.134;2024-03-17T01:26:14;10.68;;;2.70;;
39322;SDS011;25036;53.638;10.134;2024-03-17T01:27:14;8.25;;;2.95;;
39322;SDS011;25036;53.638;10.134;2024-03-17T01:28:16;10.32;;;3.20;;
39322;SDS011;25036;53.638;10.134;2024-03-17T01:29:16;7.73;;;3.30;;
39322;SDS011;25036;53.638;10.134;2024-03-17T01:30:16;10.37;;;2.33;;
39322;SDS011;25036;53.638;10.134;2024-03-17T01:31:16;9.73;;;2.50;;
39322;SDS011;25036;53.638;10.134;2024-03-17T01:32:16;9.20;;;2.60;;
39322;SDS011;25036;53.638;10.134;2024-03-17T01:33:17;6.55;;;2.17;;
39322;SDS011;25036;53.638;10.134;2024-03-17T01:34:20;6.80;;;2.60;;
39322;SDS011;25036;53.638;10.134;2024-03-17T01:35:20;8.75;;;2.28;;
39322;SDS011;25036;53.638;10.134;2024-03-17T01:36:21;7.90;;;2.70;;
39322;SDS011;25036;53.638;10.134;2024-03-17T01:37:21;7.30;;;2.80;;
39322;SDS011;25036;53.638;10.134;2024-03-17T01:38:21;7.10;;;2.60;;
39322;SDS011;25036;53.638;10.134;2024-03-17T01:39:22;10.87;;;2.60;;
39322;SDS011;25036;53.638;10.134;2024-03-17T01:40:22;6.63;;;2.23;;
39322;SDS011;25036;53.638;10.134;2024-03-17T01:41:22;9.80;;;2.53;;
39322;SDS011;25036;53.638;10.134;2024-03-17T01:42:23;6.75;;;2.10;;
39322;SDS011;25036;53.638;10.134;2024-03-17T01:43:23;10.57;;;2.20;;
39322;SDS011;25036;53.638;10.134;2024-03-17T01:44:23;8.10;;;1.97;;
39322;SDS011;25036;53.638;10.134;2024-03-17T01:45:30;10.20;;;2.63;;
39322;SDS011;25036;53.638;10.134;2024-03-17T01:46:31;6.50;;;1.73;;
39322;SDS011;25036;53.638;10.134;2024-03-17T01:47:31;7.80;;;1.90;;
39322;SDS011;25036;53.638;10.134;2024-03-17T01:48:32;5.82;;;1.90;;
39322;SDS011;25036;53.638;10.134;2024-03-17T01:49:32;7.25;;;2.15;;
39322;SDS011;25036;53.638;10.134;2024-03-17T01:50:35;7.70;;;2.03;;
39322;SDS011;25036;53.638;10.134;2024-03-17T01:51:35;9.10;;;1.98;;
39322;SDS011;25036;53.638;10.134;2024-03-17T01:52:35;6.93;;;2.00;;
39322;SDS011;25036;53.638;10.134;2024-03-17T01:53:36;6.43;;;1.95;;
39322;SDS011;25036;53.638;10.134;2024-03-17T01:54:37;7.22;;;2.00;;
39322;SDS011;25036;53.638;10.134;2024-03-17T01:55:38;7.10;;;1.80;;
39322;SDS011;25036;53.638;10.134;2024-03-17T01:56:39;5.72;;;1.75;;
39322;SDS011;25036;53.638;10.134;2024-03-17T01:57:39;6.15;;;1.70;;
39322;SDS011;25036;53.638;10.134;2024-03-17T01:58:40;7.55;;;1.70;;
39322;SDS011;25036;53.638;10.134;2024-03-17T01:59:42;5.53;;;1.42;;
39322;SDS011;25036;53.638;10.134;2024-03-17T02:00:42;5.97;;;1.50;;
39322;SDS011;25036;53.638;10.134;2024-03-17T02:01:42;6.57;;;1.58;;
39322;SDS011;25036;53.638;10.134;2024-03-17T02:02:42;9.88;;;1.90;;
39322;SDS011;25036;53.638;10.134;2024-03-17T02:03:43;7.43;;;1.92;;
39322;SDS011;25036;53.638;10.134;2024-03-17T02:04:43;7.03;;;1.53;;
39322;SDS011;25036;53.638;10.134;2024-03-17T02:05:44;6.40;;;1.87;;
39322;SDS011;25036;53.638;10.134;2024-03-17T02:06:44;4.78;;;1.52;;
39322;SDS011;25036;53.638;10.134;2024-03-17T02:07:44;6.63;;;1.60;;
39322;SDS011;25036;53.638;10.134;2024-03-17T02:08:52;7.17;;;1.90;;
39322;SDS011;25036;53.638;10.134;2024-03-17T02:09:52;9.07;;;1.70;;
39322;SDS011;25036;53.638;10.134;2024-03-17T02:10:55;6.77;;;1.63;;
39322;SDS011;25036;53.638;10.134;2024-03-17T02:11:55;7.47;;;1.85;;
39322;SDS011;25036;53.638;10.134;2024-03-17T02:12:55;7.30;;;1.70;;
39322;SDS011;25036;53.638;10.134;2024-03-17T02:13:56;5.20;;;1.33;;
39322;SDS011;25036;53.638;10.134;2024-03-17T02:14:57;7.10;;;1.42;;
39322;SDS011;25036;53.638;10.134;2024-03-17T02:15:57;10.07;;;1.90;;
39322;SDS011;25036;53.638;10.134;2024-03-17T02:16:58;7.87;;;2.27;;
39322;SDS011;25036;53.638;10.134;2024-03-17T02:17:58;6.85;;;1.80;;
39322;SDS011;25036;53.638;10.134;2024-03-17T02:18:59;5.60;;;1.73;;
39322;SDS011;25036;53.638;10.134;2024-03-17T02:19:59;7.43;;;1.60;;
39322;SDS011;25036;53.638;10.134;2024-03-17T02:20:59;7.70;;;1.73;;
39322;SDS011;25036;53.638;10.134;2024-03-17T02:22:00;7.57;;;1.55;;
39322;SDS011;25036;53.638;10.134;2024-03-17T02:23:01;8.90;;;1.80;;
39322;SDS011;25036;53.638;10.134;2024-03-17T02:24:01;6.00;;;1.33;;
39322;SDS011;25036;53.638;10.134;2024-03-17T02:25:01;3.90;;;1.30;;
39322;SDS011;25036;53.638;10.134;2024-03-17T02:26:02;6.85;;;1.50;;
39322;SDS011;25036;53.638;10.134;2024-03-17T02:27:03;7.90;;;1.77;;
39322;SDS011;25036;53.638;10.134;2024-03-17T02:28:04;4.78;;;1.67;;
39322;SDS011;25036;53.638;10.134;2024-03-17T02:29:04;7.68;;;1.60;;
39322;SDS011;25036;53.638;10.134;2024-03-17T02:30:05;7.53;;;1.67;;
39322;SDS011;25036;53.638;10.134;2024-03-17T02:31:09;7.38;;;1.48;;
39322;SDS011;25036;53.638;10.134;2024-03-17T02:32:10;6.22;;;1.27;;
39322;SDS011;25036;53.638;10.134;2024-03-17T02:33:11;4.90;;;1.30;;
39322;SDS011;25036;53.638;10.134;2024-03-17T02:34:11;6.07;;;1.52;;
39322;SDS011;25036;53.638;10.134;2024-03-17T02:35:11;7.10;;;1.93;;
39322;SDS011;25036;53.638;10.134;2024-03-17T02:36:12;5.40;;;1.50;;
39322;SDS011;25036;53.638;10.134;2024-03-17T02:37:12;7.50;;;1.80;;
39322;SDS011;25036;53.638;10.134;2024-03-17T02:38:15;6.57;;;1.50;;
39322;SDS011;25036;53.638;10.134;2024-03-17T02:39:35;8.27;;;1.52;;
39322;SDS011;25036;53.638;10.134;2024-03-17T02:40:36;6.53;;;1.42;;
39322;SDS011;25036;53.638;10.134;2024-03-17T02:41:36;5.10;;;1.27;;
39322;SDS011;25036;53.638;10.134;2024-03-17T02:42:36;8.30;;;1.40;;
39322;SDS011;25036;53.638;10.134;2024-03-17T02:43:41;6.25;;;1.65;;
39322;SDS011;25036;53.638;10.134;2024-03-17T02:44:41;5.87;;;1.47;;
39322;SDS011;25036;53.638;10.134;2024-03-17T02:45:43;9.70;;;2.00;;
39322;SDS011;25036;53.638;10.134;2024-03-17T02:46:43;7.63;;;1.60;;
39322;SDS011;25036;53.638;10.134;2024-03-17T02:47:43;7.80;;;1.70;;
39322;SDS011;25036;53.638;10.134;2024-03-17T02:48:43;7.33;;;1.60;;
39322;SDS011;25036;53.638;10.134;2024-03-17T02:49:49;6.88;;;1.52;;
39322;SDS011;25036;53.638;10.134;2024-03-17T02:50:50;7.35;;;1.60;;
39322;SDS011;25036;53.638;10.134;2024-03-17T02:51:50;6.70;;;1.63;;
39322;SDS011;25036;53.638;10.134;2024-03-17T02:52:50;4.57;;;1.40;;
39322;SDS011;25036;53.638;10.134;2024-03-17T02:53:51;6.37;;;1.67;;
39322;SDS011;25036;53.638;10.134;2024-03-17T02:54:51;5.70;;;1.80;;
39322;SDS011;25036;53.638;10.134;2024-03-17T02:55:53;5.82;;;1.40;;
39322;SDS011;25036;53.638;10.134;2024-03-17T02:56:53;7.83;;;1.40;;
39322;SDS011;25036;53.638;10.134;2024-03-17T02:57:53;6.23;;;1.37;;
39322;SDS011;25036;53.638;10.134;2024-03-17T02:58:53;8.00;;;1.40;;
39322;SDS011;25036;53.638;10.134;2024-03-17T02:59:54;6.75;;;1.60;;
39322;SDS011;25036;53.638;10.134;2024-03-17T03:00:54;6.73;;;1.60;;
39322;SDS011;25036;53.638;10.134;2024-03-17T03:01:54;5.70;;;1.67;;
39322;SDS011;25036;53.638;10.134;2024-03-17T03:02:54;5.67;;;1.47;;
39322;SDS011;25036;53.638;10.134;2024-03-17T03:03:54;7.90;;;1.53;;
39322;SDS011;25036;53.638;10.134;2024-03-17T03:04:54;6.93;;;1.70;;
39322;SDS011;25036;53.638;10.134;2024-03-17T03:05:55;6.60;;;1.63;;
39322;SDS011;25036;53.638;10.134;2024-03-17T03:06:56;5.32;;;1.60;;
39322;SDS011;25036;53.638;10.134;2024-03-17T03:07:57;4.90;;;1.40;;
39322;SDS011;25036;53.638;10.134;2024-03-17T03:08:57;6.35;;;1.77;;
39322;SDS011;25036;53.638;10.134;2024-03-17T03:09:58;4.93;;;1.48;;
39322;SDS011;25036;53.638;10.134;2024-03-17T03:10:58;6.83;;;1.40;;
39322;SDS011;25036;53.638;10.134;2024-03-17T03:11:58;6.67;;;1.63;;
39322;SDS011;25036;53.638;10.134;2024-03-17T03:12:59;5.15;;;1.45;;
39322;SDS011;25036;53.638;10.134;2024-03-17T03:13:59;5.83;;;1.30;;
39322;SDS011;25036;53.638;10.134;2024-03-17T03:14:59;8.00;;;1.70;;
39322;SDS011;25036;53.638;10.134;2024-03-17T03:15:59;6.00;;;1.57;;
39322;SDS011;25036;53.638;10.134;2024-03-17T03:17:00;6.23;;;1.50;;
39322;SDS011;25036;53.638;10.134;2024-03-17T03:18:00;5.07;;;1.45;;
39322;SDS011;25036;53.638;10.134;2024-03-17T03:19:00;6.37;;;1.87;;
39322;SDS011;25036;53.638;10.134;2024-03-17T03:20:00;6.13;;;1.30;;
39322;SDS011;25036;53.638;10.134;2024-03-17T03:21:01;5.38;;;1.65;;
39322;SDS011;25036;53.638;10.134;2024-03-17T03:22:01;4.90;;;1.42;;
39322;SDS011;25036;53.638;10.134;2024-03-17T03:23:01;6.33;;;1.73;;
39322;SDS011;25036;53.638;10.134;2024-03-17T03:24:02;8.00;;;1.73;;
39322;SDS011;25036;53.638;10.134;2024-03-17T03:25:02;7.30;;;1.52;;
39322;SDS011;25036;53.638;10.134;2024-03-17T03:26:03;8.00;;;1.85;;
39322;SDS011;25036;53.638;10.134;2024-03-17T03:27:03;6.80;;;1.45;;
39322;SDS011;25036;53.638;10.134;2024-03-17T03:28:04;5.38;;;1.20;;
39322;SDS011;25036;53.638;10.134;2024-03-17T03:29:05;7.30;;;1.67;;
39322;SDS011;25036;53.638;10.134;2024-03-17T03:30:05;6.17;;;1.27;;
39322;SDS011;25036;53.638;10.134;2024-03-17T03:31:11;5.95;;;1.58;;
39322;SDS011;25036;53.638;10.134;2024-03-17T03:32:13;6.25;;;1.73;;
39322;SDS011;25036;53.638;10.134;2024-03-17T03:33:13;8.50;;;1.73;;
39322;SDS011;25036;53.638;10.134;2024-03-17T03:34:13;4.70;;;1.60;;
39322;SDS011;25036;53.638;10.134;2024-03-17T03:35:13;8.73;;;2.23;;
39322;SDS011;25036;53.638;10.134;2024-03-17T03:36:15;5.68;;;1.40;;
39322;SDS011;25036;53.638;10.134;2024-03-17T03:37:16;9.13;;;1.40;;
39322;SDS011;25036;53.638;10.134;2024-03-17T03:38:17;5.38;;;1.42;;
39322;SDS011;25036;53.638;10.134;2024-03-17T03:39:17;6.47;;;1.35;;
39322;SDS011;25036;53.638;10.134;2024-03-17T03:40:19;5.85;;;1.40;;
39322;SDS011;25036;53.638;10.134;2024-03-17T03:41:22;4.20;;;1.47;;
39322;SDS011;25036;53.638;10.134;2024-03-17T03:42:23;6.25;;;1.48;;
39322;SDS011;25036;53.638;10.134;2024-03-17T03:43:23;8.13;;;1.42;;
39322;SDS011;25036;53.638;10.134;2024-03-17T03:44:23;6.23;;;1.70;;
39322;SDS011;25036;53.638;10.134;2024-03-17T03:45:23;6.33;;;1.60;;
39322;SDS011;25036;53.638;10.134;2024-03-17T03:46:23;6.65;;;1.58;;
39322;SDS011;25036;53.638;10.134;2024-03-17T03:47:23;6.33;;;1.80;;
39322;SDS011;25036;53.638;10.134;2024-03-17T03:48:24;4.97;;;1.30;;
39322;SDS011;25036;53.638;10.134;2024-03-17T03:49:26;5.23;;;1.80;;
39322;SDS011;25036;53.638;10.134;2024-03-17T03:50:27;4.43;;;1.38;;
39322;SDS011;25036;53.638;10.134;2024-03-17T03:51:27;5.63;;;1.43;;
39322;SDS011;25036;53.638;10.134;2024-03-17T03:52:27;5.50;;;1.50;;
39322;SDS011;25036;53.638;10.134;2024-03-17T03:53:27;3.87;;;1.20;;
39322;SDS011;25036;53.638;10.134;2024-03-17T03:54:27;6.50;;;1.70;;
39322;SDS011;25036;53.638;10.134;2024-03-17T03:55:27;8.20;;;1.80;;
39322;SDS011;25036;53.638;10.134;2024-03-17T03:56:29;4.55;;;1.30;;
39322;SDS011;25036;53.638;10.134;2024-03-17T03:57:29;5.83;;;1.40;;
39322;SDS011;25036;53.638;10.134;2024-03-17T03:58:30;9.55;;;1.80;;
39322;SDS011;25036;53.638;10.134;2024-03-17T03:59:30;8.73;;;1.90;;
39322;SDS011;25036;53.638;10.134;2024-03-17T04:00:30;8.20;;;1.93;;
39322;SDS011;25036;53.638;10.134;2024-03-17T04:01:31;7.15;;;1.67;;
39322;SDS011;25036;53.638;10.134;2024-03-17T04:02:31;5.73;;;1.43;;
39322;SDS011;25036;53.638;10.134;2024-03-17T04:03:33;6.53;;;1.73;;
39322;SDS011;25036;53.638;10.134;2024-03-17T04:04:34;6.13;;;1.70;;
39322;SDS011;25036;53.638;10.134;2024-03-17T04:05:34;5.87;;;1.60;;
39322;SDS011;25036;53.638;10.134;2024-03-17T04:06:34;6.00;;;1.93;;
39322;SDS011;25036;53.638;10.134;2024-03-17T04:07:37;4.55;;;1.40;;
39322;SDS011;25036;53.638;10.134;2024-03-17T04:08:37;9.25;;;2.05;;
39322;SDS011;25036;53.638;10.134;2024-03-17T04:09:39;5.75;;;2.03;;
39322;SDS011;25036;53.638;10.134;2024-03-17T04:10:40;6.80;;;1.90;;
39322;SDS011;25036;53.638;10.134;2024-03-17T04:11:40;4.27;;;1.40;;
39322;SDS011;25036;53.638;10.134;2024-03-17T04:12:40;8.93;;;2.30;;
39322;SDS011;25036;53.638;10.134;2024-03-17T04:13:40;7.43;;;2.13;;
39322;SDS011;25036;53.638;10.134;2024-03-17T04:14:41;7.03;;;1.58;;
39322;SDS011;25036;53.638;10.134;2024-03-17T04:15:41;6.53;;;1.87;;
39322;SDS011;25036;53.638;10.134;2024-03-17T04:16:41;6.13;;;1.60;;
39322;SDS011;25036;53.638;10.134;2024-03-17T04:17:41;5.13;;;1.60;;
39322;SDS011;25036;53.638;10.134;2024-03-17T04:18:42;6.38;;;1.75;;
39322;SDS011;25036;53.638;10.134;2024-03-17T04:19:42;5.53;;;1.70;;
39322;SDS011;25036;53.638;10.134;2024-03-17T04:20:42;6.63;;;1.60;;
39322;SDS011;25036;53.638;10.134;2024-03-17T04:21:42;3.27;;;1.10;;
39322;SDS011;25036;53.638;10.134;2024-03-17T04:22:42;5.60;;;1.40;;
39322;SDS011;25036;53.638;10.134;2024-03-17T04:23:42;4.70;;;1.60;;
39322;SDS011;25036;53.638;10.134;2024-03-17T04:24:43;4.50;;;1.30;;
39322;SDS011;25036;53.638;10.134;2024-03-17T04:25:43;5.93;;;1.30;;
39322;SDS011;25036;53.638;10.134;2024-03-17T04:26:43;4.80;;;1.20;;
39322;SDS011;25036;53.638;10.134;2024-03-17T04:27:44;5.33;;;1.37;;
39322;SDS011;25036;53.638;10.134;2024-03-17T04:28:44;5.00;;;1.37;;
39322;SDS011;25036;53.638;10.134;2024-03-17T04:29:46;6.13;;;1.50;;
39322;SDS011;25036;53.638;10.134;2024-03-17T04:30:47;5.50;;;1.55;;
39322;SDS011;25036;53.638;10.134;2024-03-17T04:31:47;6.30;;;1.63;;
39322;SDS011;25036;53.638;10.134;2024-03-17T04:32:48;7.25;;;1.70;;
39322;SDS011;25036;53.638;10.134;2024-03-17T04:33:48;3.57;;;1.03;;
39322;SDS011;25036;53.638;10.134;2024-03-17T04:34:49;5.07;;;1.87;;
39322;SDS011;25036;53.638;10.134;2024-03-17T04:35:49;5.38;;;1.80;;
39322;SDS011;25036;53.638;10.134;2024-03-17T04:36:49;5.27;;;1.40;;
39322;SDS011;25036;53.638;10.134;2024-03-17T04:37:49;6.30;;;1.20;;
39322;SDS011;25036;53.638;10.134;2024-03-17T04:38:49;4.03;;;1.00;;
39322;SDS011;25036;53.638;10.134;2024-03-17T04:39:51;6.13;;;1.33;;
39322;SDS011;25036;53.638;10.134;2024-03-17T04:40:52;7.30;;;1.93;;
39322;SDS011;25036;53.638;10.134;2024-03-17T04:41:57;6.00;;;1.40;;
39322;SDS011;25036;53.638;10.134;2024-03-17T04:42:57;7.57;;;1.92;;
39322;SDS011;25036;53.638;10.134;2024-03-17T04:43:57;8.70;;;1.40;;
39322;SDS011;25036;53.638;10.134;2024-03-17T04:44:57;5.80;;;1.30;;
39322;SDS011;25036;53.638;10.134;2024-03-17T04:46:01;6.10;;;1.57;;
39322;SDS011;25036;53.638;10.134;2024-03-17T04:47:02;5.53;;;1.27;;
39322;SDS011;25036;53.638;10.134;2024-03-17T04:48:06;6.28;;;1.30;;
39322;SDS011;25036;53.638;10.134;2024-03-17T04:49:07;5.85;;;1.70;;
39322;SDS011;25036;53.638;10.134;2024-03-17T04:50:08;3.97;;;1.40;;
39322;SDS011;25036;53.638;10.134;2024-03-17T04:51:10;4.53;;;1.67;;
39322;SDS011;25036;53.638;10.134;2024-03-17T04:52:14;5.38;;;1.33;;
39322;SDS011;25036;53.638;10.134;2024-03-17T04:53:16;5.72;;;1.48;;
39322;SDS011;25036;53.638;10.134;2024-03-17T04:54:16;4.37;;;1.57;;
39322;SDS011;25036;53.638;10.134;2024-03-17T04:55:16;5.67;;;1.97;;
39322;SDS011;25036;53.638;10.134;2024-03-17T04:56:19;5.00;;;1.70;;
39322;SDS011;25036;53.638;10.134;2024-03-17T04:57:19;6.30;;;1.80;;
39322;SDS011;25036;53.638;10.134;2024-03-17T04:58:20;6.05;;;1.48;;
39322;SDS011;25036;53.638;10.134;2024-03-17T04:59:20;5.83;;;1.70;;
39322;SDS011;25036;53.638;10.134;2024-03-17T05:00:20;5.30;;;1.30;;
39322;SDS011;25036;53.638;10.134;2024-03-17T05:01:21;4.47;;;1.60;;
39322;SDS011;25036;53.638;10.134;2024-03-17T05:02:21;6.17;;;1.40;;
39322;SDS011;25036;53.638;10.134;2024-03-17T05:03:23;2.85;;;0.98;;
39322;SDS011;25036;53.638;10.134;2024-03-17T05:04:23;4.47;;;1.30;;
39322;SDS011;25036;53.638;10.134;2024-03-17T05:05:23;6.43;;;1.60;;
39322;SDS011;25036;53.638;10.134;2024-03-17T05:06:23;5.43;;;1.23;;
39322;SDS011;25036;53.638;10.134;2024-03-17T05:07:23;5.33;;;1.47;;
39322;SDS011;25036;53.638;10.134;2024-03-17T05:08:24;3.65;;;1.17;;
39322;SDS011;25036;53.638;10.134;2024-03-17T05:09:24;5.90;;;1.67;;
39322;SDS011;25036;53.638;10.134;2024-03-17T05:10:24;7.80;;;1.48;;
39322;SDS011;25036;53.638;10.134;2024-03-17T05:11:24;10.30;;;1.80;;
39322;SDS011;25036;53.638;10.134;2024-03-17T05:12:24;6.95;;;2.25;;
39322;SDS011;25036;53.638;10.134;2024-03-17T05:13:25;5.80;;;1.83;;
39322;SDS011;25036;53.638;10.134;2024-03-17T05:14:26;6.00;;;1.60;;
39322;SDS011;25036;53.638;10.134;2024-03-17T05:15:26;8.18;;;2.05;;
39322;SDS011;25036;53.638;10.134;2024-03-17T05:16:26;8.07;;;1.63;;
39322;SDS011;25036;53.638;10.134;2024-03-17T05:17:29;4.90;;;1.88;;
39322;SDS011;25036;53.638;10.134;2024-03-17T05:18:29;5.80;;;1.30;;
39322;SDS011;25036;53.638;10.134;2024-03-17T05:19:32;5.65;;;1.83;;
39322;SDS011;25036;53.638;10.134;2024-03-17T05:20:32;5.83;;;1.73;;
39322;SDS011;25036;53.638;10.134;2024-03-17T05:21:32;4.97;;;1.57;;
39322;SDS011;25036;53.638;10.134;2024-03-17T05:22:33;5.33;;;1.47;;
39322;SDS011;25036;53.638;10.134;2024-03-17T05:23:34;6.27;;;1.87;;
39322;SDS011;25036;53.638;10.134;2024-03-17T05:24:34;5.32;;;1.35;;
39322;SDS011;25036;53.638;10.134;2024-03-17T05:25:34;6.60;;;1.50;;
39322;SDS011;25036;53.638;10.134;2024-03-17T05:26:36;7.30;;;1.88;;
39322;SDS011;25036;53.638;10.134;2024-03-17T05:27:37;7.00;;;1.53;;
39322;SDS011;25036;53.638;10.134;2024-03-17T05:28:37;7.23;;;1.57;;
39322;SDS011;25036;53.638;10.134;2024-03-17T05:29:37;5.87;;;1.50;;
39322;SDS011;25036;53.638;10.134;2024-03-17T05:30:37;7.22;;;1.85;;
39322;SDS011;25036;53.638;10.134;2024-03-17T05:31:37;7.93;;;1.80;;
39322;SDS011;25036;53.638;10.134;2024-03-17T05:32:39;4.93;;;1.50;;
39322;SDS011;25036;53.638;10.134;2024-03-17T05:33:39;3.70;;;1.15;;
39322;SDS011;25036;53.638;10.134;2024-03-17T05:34:39;4.17;;;1.43;;
39322;SDS011;25036;53.638;10.134;2024-03-17T05:35:39;6.13;;;1.60;;
39322;SDS011;25036;53.638;10.134;2024-03-17T05:36:39;6.37;;;1.60;;
39322;SDS011;25036;53.638;10.134;2024-03-17T05:37:40;6.27;;;1.73;;
39322;SDS011;25036;53.638;10.134;2024-03-17T05:38:40;6.07;;;1.67;;
39322;SDS011;25036;53.638;10.134;2024-03-17T05:39:41;4.82;;;1.40;;
39322;SDS011;25036;53.638;10.134;2024-03-17T05:40:41;6.10;;;1.67;;
39322;SDS011;25036;53.638;10.134;2024-03-17T05:41:41;10.73;;;2.20;;
39322;SDS011;25036;53.638;10.134;2024-03-17T05:42:43;6.25;;;1.30;;
39322;SDS011;25036;53.638;10.134;2024-03-17T05:43:44;6.55;;;1.63;;
39322;SDS011;25036;53.638;10.134;2024-03-17T05:44:44;6.35;;;1.33;;
39322;SDS011;25036;53.638;10.134;2024-03-17T05:45:51;7.35;;;1.60;;
39322;SDS011;25036;53.638;10.134;2024-03-17T05:46:51;5.80;;;1.95;;
39322;SDS011;25036;53.638;10.134;2024-03-17T05:47:53;6.68;;;1.65;;
39322;SDS011;25036;53.638;10.134;2024-03-17T05:48:53;6.70;;;2.03;;
39322;SDS011;25036;53.638;10.134;2024-03-17T05:49:53;5.10;;;1.50;;
39322;SDS011;25036;53.638;10.134;2024-03-17T05:50:54;5.88;;;1.65;;
39322;SDS011;25036;53.638;10.134;2024-03-17T05:51:54;4.82;;;1.75;;
39322;SDS011;25036;53.638;10.134;2024-03-17T05:52:54;3.40;;;1.27;;
39322;SDS011;25036;53.638;10.134;2024-03-17T05:53:54;5.53;;;1.73;;
39322;SDS011;25036;53.638;10.134;2024-03-17T05:54:55;3.95;;;1.40;;
39322;SDS011;25036;53.638;10.134;2024-03-17T05:55:56;7.13;;;1.73;;
39322;SDS011;25036;53.638;10.134;2024-03-17T05:56:56;5.93;;;1.90;;
39322;SDS011;25036;53.638;10.134;2024-03-17T05:57:56;6.50;;;1.70;;
39322;SDS011;25036;53.638;10.134;2024-03-17T05:58:56;6.85;;;2.20;;
39322;SDS011;25036;53.638;10.134;2024-03-17T05:59:56;4.80;;;1.50;;